Time;durP1;ratioP1;P1;durP2;ratioP2;P2;SDS_P1;SDS_P2;PMS_P1;PMS_P2;Temp;Humidity;BMP_temperature;BMP_pressure;BME280_temperature;BME280_humidity;BME280_pressure;Samples;Min_cycle;Max_cycle;Signal;HPM_P1;HPM_P2
2021/04/26 10:24:58;;;;;;;10.95;4.00;;;15.00;55.30;;;;;;11984254;27;20392;-76
2021/04/26 10:31:01;;;;;;;12.80;4.53;;;15.60;52.90;;;;;;12023748;28;20060;-76
2021/04/26 10:36:53;;;;;;;20.33;5.72;;;16.20;51.70;;;;;;12013212;28;20736;-77
2021/04/26 10:42:42;;;;;;;11.88;4.82;;;16.40;50.70;;;;;;12029045;28;20053;-77
2021/04/26 10:48:28;;;;;;;12.45;4.40;;;16.40;50.50;;;;;;12037473;28;20060;-75
2021/04/26 10:54:41;;;;;;;25.38;5.35;;;16.60;51.00;;;;;;12036829;28;20060;-77
2021/04/26 11:00:53;;;;;;;10.20;3.60;;;16.90;49.30;;;;;;12036365;28;20056;-77
2021/04/26 11:06:40;;;;;;;10.35;4.47;;;17.10;50.20;;;;;;12019727;28;20545;-77
2021/04/26 11:12:33;;;;;;;10.50;3.85;;;17.20;49.00;;;;;;12033474;28;20060;-78
2021/04/26 11:18:20;;;;;;;9.43;4.20;;;17.30;49.10;;;;;;12038320;28;20095;-77
2021/04/26 11:24:08;;;;;;;11.80;4.05;;;17.60;49.40;;;;;;11955075;28;20498;-77
2021/04/26 11:30:30;;;;;;;8.23;4.32;;;17.60;47.90;;;;;;11953881;28;20053;-78
2021/04/26 11:36:17;;;;;;;7.68;4.38;;;17.50;47.50;;;;;;11958891;28;20053;-78
2021/04/26 11:42:05;;;;;;;9.43;4.22;;;17.60;48.80;;;;;;11957689;28;20421;-77
2021/04/26 11:47:52;;;;;;;7.60;4.35;;;17.50;47.80;;;;;;11954794;28;20049;-78
2021/04/26 11:53:39;;;;;;;8.98;3.95;;;17.70;47.60;;;;;;11952358;28;20053;-78
2021/04/26 11:59:26;;;;;;;10.70;3.75;;;18.00;48.50;;;;;;11956452;28;20045;-78
2021/04/26 12:05:14;;;;;;;9.00;3.72;;;18.30;47.60;;;;;;11953220;28;20398;-78
2021/04/26 12:11:23;;;;;;;14.00;3.30;;;18.50;46.60;;;;;;11955787;28;20053;-78
2021/04/26 12:17:18;;;;;;;7.32;3.40;;;18.60;44.60;;;;;;11954670;28;20525;-75
2021/04/26 12:23:07;;;;;;;10.27;3.10;;;18.60;46.00;;;;;;11982339;28;20475;-76
2021/04/26 12:28:54;;;;;;;5.55;3.30;;;18.70;45.80;;;;;;11995615;28;20072;-75
2021/04/26 12:34:49;;;;;;;10.43;3.15;;;18.90;44.30;;;;;;11997767;28;20436;-75
2021/04/26 12:40:35;;;;;;;6.03;3.20;;;19.00;44.10;;;;;;11994329;28;20404;-76
2021/04/26 12:46:22;;;;;;;11.75;2.90;;;19.10;43.30;;;;;;11990931;28;20049;-76
2021/04/26 12:52:16;;;;;;;5.38;2.65;;;19.30;42.40;;;;;;11993097;28;20052;-76
2021/04/26 12:58:07;;;;;;;5.25;2.88;;;19.20;42.50;;;;;;11986582;28;20041;-76
2021/04/26 13:03:57;;;;;;;9.65;2.88;;;19.40;41.50;;;;;;11992250;28;20546;-77
2021/04/26 13:09:43;;;;;;;11.85;2.72;;;19.50;42.20;;;;;;11991693;28;20102;-78
2021/04/26 13:15:30;;;;;;;32.90;17.73;;;19.70;41.80;;;;;;11989348;28;20056;-75
2021/04/26 13:21:20;;;;;;;16.40;4.00;;;19.90;41.50;;;;;;11991087;28;20060;-75
2021/04/26 13:27:09;;;;;;;8.55;3.00;;;20.10;42.30;;;;;;11991085;28;20052;-75
2021/04/26 13:32:56;;;;;;;11.57;2.78;;;20.20;42.20;;;;;;11954042;28;20053;-76
2021/04/26 13:38:43;;;;;;;9.00;2.70;;;20.30;42.50;;;;;;11944690;28;20060;-74
2021/04/26 13:44:30;;;;;;;7.65;3.10;;;20.50;42.10;;;;;;11944762;28;20529;-75
2021/04/26 13:50:16;;;;;;;11.23;3.08;;;20.40;41.10;;;;;;11976999;28;20746;-76
2021/04/26 13:56:04;;;;;;;9.93;2.78;;;20.60;42.40;;;;;;11990961;28;20686;-77
2021/04/26 14:01:53;;;;;;;11.43;2.42;;;20.90;41.60;;;;;;11991678;28;20423;-75
2021/04/26 14:07:40;;;;;;;12.35;2.63;;;21.10;41.30;;;;;;11992946;28;20048;-76
2021/04/26 14:13:27;;;;;;;8.10;3.03;;;21.10;40.50;;;;;;11999040;28;20094;-76
2021/04/26 14:19:14;;;;;;;10.75;2.55;;;20.90;40.50;;;;;;11994783;28;20053;-75
2021/04/26 14:25:01;;;;;;;5.32;2.30;;;20.90;38.70;;;;;;11947134;28;20053;-76
2021/04/26 14:30:48;;;;;;;9.95;2.40;;;20.90;39.70;;;;;;11986255;28;20044;-76
2021/04/26 14:36:35;;;;;;;5.03;2.35;;;21.00;38.40;;;;;;11988398;28;20052;-76
2021/04/26 14:42:21;;;;;;;13.85;2.35;;;21.00;38.10;;;;;;11947486;28;20065;-76
2021/04/26 14:48:09;;;;;;;12.05;2.90;;;21.20;37.90;;;;;;11952558;28;20099;-76
2021/04/26 14:53:56;;;;;;;57.72;30.63;;;21.30;37.80;;;;;;11942347;28;20054;-76
2021/04/26 14:59:42;;;;;;;13.90;2.80;;;21.30;38.50;;;;;;11975348;28;20454;-75
2021/04/26 15:05:30;;;;;;;6.65;1.95;;;21.50;37.20;;;;;;11957564;28;20115;-76
2021/04/26 15:11:16;;;;;;;4.72;2.25;;;21.40;37.00;;;;;;11959932;28;20049;-77
2021/04/26 15:17:03;;;;;;;7.05;2.30;;;21.40;36.70;;;;;;12001542;28;20516;-77
2021/04/26 15:22:50;;;;;;;5.80;2.50;;;21.20;36.40;;;;;;11973832;28;20814;-78
2021/04/26 15:28:36;;;;;;;6.15;2.42;;;21.50;37.30;;;;;;11954285;28;20065;-76
2021/04/26 15:34:23;;;;;;;6.75;2.38;;;21.80;36.90;;;;;;11953765;28;20061;-75
2021/04/26 15:40:12;;;;;;;10.68;2.47;;;22.10;36.90;;;;;;11955952;28;20049;-76
2021/04/26 15:45:58;;;;;;;9.00;2.63;;;22.30;36.40;;;;;;11951733;28;20066;-76
2021/04/26 15:51:44;;;;;;;10.00;2.60;;;22.40;34.70;;;;;;11952343;28;20052;-76
2021/04/26 15:57:31;;;;;;;5.47;2.15;;;22.50;35.00;;;;;;11949334;28;20053;-77
2021/04/26 16:03:18;;;;;;;7.88;2.60;;;22.50;33.60;;;;;;11951171;28;20041;-76
2021/04/26 16:09:05;;;;;;;11.07;2.40;;;23.40;33.00;;;;;;11949554;28;20558;-76
2021/04/26 16:14:53;;;;;;;9.60;2.35;;;25.60;30.70;;;;;;11952051;28;20060;-76
2021/04/26 16:20:39;;;;;;;6.38;2.40;;;27.70;29.00;;;;;;11963688;28;20131;-76
2021/04/26 16:26:26;;;;;;;8.88;2.42;;;29.70;27.50;;;;;;11955200;28;20402;-76
2021/04/26 16:32:16;;;;;;;6.47;2.22;;;31.40;26.00;;;;;;11947432;28;20050;-76
2021/04/26 16:38:03;;;;;;;7.13;2.60;;;32.00;25.30;;;;;;11948058;28;20057;-78
2021/04/26 16:43:50;;;;;;;5.70;2.10;;;33.50;24.30;;;;;;11948501;28;20050;-77
2021/04/26 16:49:38;;;;;;;66.95;43.47;;;34.20;23.20;;;;;;11948526;28;20080;-80
2021/04/26 16:55:25;;;;;;;11.38;2.60;;;34.80;22.90;;;;;;11948100;28;20053;-78
2021/04/26 17:01:11;;;;;;;4.93;2.10;;;35.20;22.70;;;;;;11948967;28;20056;-78
2021/04/26 17:06:59;;;;;;;5.80;2.40;;;35.30;22.40;;;;;;11947282;28;20053;-78
2021/04/26 17:12:45;;;;;;;5.28;2.15;;;35.60;22.20;;;;;;11974403;28;20408;-79
2021/04/26 17:18:32;;;;;;;5.00;2.13;;;35.30;22.20;;;;;;11999547;28;21388;-80
2021/04/26 17:24:19;;;;;;;8.02;2.10;;;35.00;22.00;;;;;;11993145;28;20060;-79
2021/04/26 17:30:08;;;;;;;4.60;2.00;;;34.90;22.30;;;;;;11987759;28;20427;-80
2021/04/26 17:35:54;;;;;;;4.93;2.28;;;34.70;22.40;;;;;;11995432;28;20131;-79
2021/04/26 17:41:41;;;;;;;7.25;2.25;;;34.70;22.00;;;;;;11997274;28;20048;-80
2021/04/26 17:47:28;;;;;;;6.07;2.08;;;34.40;22.10;;;;;;11995592;28;20068;-79
2021/04/26 17:53:15;;;;;;;4.63;1.75;;;34.00;22.00;;;;;;11995888;28;20076;-80
2021/04/26 17:59:03;;;;;;;5.40;2.10;;;32.70;22.80;;;;;;11999194;28;20056;-80
2021/04/26 18:04:51;;;;;;;8.80;2.28;;;30.60;24.00;;;;;;11996359;28;20055;-79
2021/04/26 18:10:37;;;;;;;5.53;1.90;;;27.50;25.80;;;;;;11992925;28;20052;-78
2021/04/26 18:16:25;;;;;;;4.00;2.60;;;25.20;27.10;;;;;;11996649;28;20511;-78
2021/04/26 18:22:11;;;;;;;6.38;1.98;;;23.70;28.10;;;;;;12003077;28;20071;-78
2021/04/26 18:27:58;;;;;;;8.55;1.95;;;22.70;29.00;;;;;;12002351;28;20190;-78
2021/04/26 18:33:51;;;;;;;5.63;2.47;;;22.10;30.30;;;;;;11991193;28;20053;-80
2021/04/26 18:39:37;;;;;;;11.60;2.80;;;21.50;32.60;;;;;;11996512;28;20107;-78
2021/04/26 18:45:26;;;;;;;5.28;2.45;;;21.10;34.80;;;;;;11997002;28;20053;-75
2021/04/26 18:51:14;;;;;;;5.93;2.80;;;20.70;36.20;;;;;;11990747;28;20076;-73
2021/04/26 18:57:02;;;;;;;8.68;3.20;;;20.50;37.20;;;;;;11993049;28;20135;-73
2021/04/26 19:02:48;;;;;;;11.73;3.28;;;20.30;37.70;;;;;;11998787;28;20055;-74
2021/04/26 19:08:35;;;;;;;8.60;3.65;;;20.20;38.20;;;;;;11994239;28;20049;-77
2021/04/26 19:14:22;;;;;;;8.90;3.65;;;19.90;38.80;;;;;;11995504;28;20056;-73
2021/04/26 19:20:10;;;;;;;10.95;5.50;;;19.80;39.30;;;;;;11997272;28;20056;-78
2021/04/26 19:25:58;;;;;;;11.68;5.70;;;19.60;40.30;;;;;;12008585;28;20466;-78
2021/04/26 19:31:45;;;;;;;14.88;7.10;;;19.30;41.00;;;;;;12014159;28;20084;-77
2021/04/26 19:37:32;;;;;;;13.73;7.95;;;19.10;41.60;;;;;;11999062;28;20053;-76
2021/04/26 19:43:20;;;;;;;16.13;7.40;;;19.10;42.10;;;;;;11998171;28;20971;-77
2021/04/26 19:49:07;;;;;;;13.15;7.78;;;18.90;42.50;;;;;;11999542;28;20044;-77
2021/04/26 19:54:53;;;;;;;14.20;7.57;;;18.80;42.80;;;;;;11997697;28;20057;-77
2021/04/26 20:00:43;;;;;;;18.40;8.45;;;18.90;43.10;;;;;;11993624;28;20041;-76
2021/04/26 20:06:32;;;;;;;18.70;8.40;;;18.70;43.30;;;;;;11993433;28;20060;-77
2021/04/26 20:12:19;;;;;;;16.40;7.90;;;18.60;43.50;;;;;;12000635;28;20049;-76
2021/04/26 20:18:06;;;;;;;16.70;7.95;;;18.60;43.40;;;;;;11995454;28;20389;-78
2021/04/26 20:23:53;;;;;;;17.17;8.75;;;18.50;43.50;;;;;;11997214;28;20044;-74
2021/04/26 20:29:39;;;;;;;18.05;8.63;;;18.50;43.40;;;;;;11989953;28;20060;-75
2021/04/26 20:35:29;;;;;;;15.40;8.27;;;18.40;43.40;;;;;;11990750;28;20056;-75
2021/04/26 20:41:16;;;;;;;14.38;7.35;;;18.30;43.00;;;;;;11995836;28;20044;-76
2021/04/26 20:47:02;;;;;;;23.95;9.30;;;18.10;43.30;;;;;;11997075;28;20105;-76
2021/04/26 20:52:50;;;;;;;12.68;7.15;;;18.00;43.20;;;;;;11994807;28;20053;-76
2021/04/26 20:58:36;;;;;;;15.20;7.72;;;17.90;42.60;;;;;;11993163;28;20474;-76
2021/04/26 21:04:23;;;;;;;15.80;7.43;;;17.90;42.70;;;;;;11998981;28;20388;-75
2021/04/26 21:10:13;;;;;;;17.45;7.80;;;17.90;42.70;;;;;;12005084;28;20059;-75
2021/04/26 21:15:59;;;;;;;15.63;6.53;;;17.70;42.50;;;;;;12003987;28;20090;-75
2021/04/26 21:21:46;;;;;;;12.13;7.30;;;17.60;42.40;;;;;;12008956;28;20053;-75
2021/04/26 21:27:34;;;;;;;10.60;7.20;;;17.60;42.20;;;;;;11988483;28;20052;-75
2021/04/26 21:33:20;;;;;;;9.20;6.57;;;17.60;42.00;;;;;;11994300;28;20041;-75
2021/04/26 21:39:09;;;;;;;14.85;6.45;;;17.50;42.20;;;;;;11994296;28;20060;-75
2021/04/26 21:44:57;;;;;;;16.33;6.95;;;17.50;41.90;;;;;;11990403;28;20047;-75
2021/04/26 21:50:43;;;;;;;12.30;6.95;;;17.40;42.80;;;;;;11991337;28;20044;-75
2021/04/26 21:56:31;;;;;;;15.85;6.57;;;17.30;42.10;;;;;;11990600;28;20762;-74
2021/04/26 22:02:18;;;;;;;11.20;6.68;;;17.40;42.30;;;;;;11994493;28;20044;-75
2021/04/26 22:08:07;;;;;;;9.80;6.43;;;17.30;41.90;;;;;;11992716;28;20053;-75
2021/04/26 22:13:54;;;;;;;11.10;6.55;;;17.30;42.00;;;;;;11990942;28;20506;-72
2021/04/26 22:19:41;;;;;;;15.88;6.28;;;17.30;42.10;;;;;;11989401;28;20057;-75
2021/04/26 22:25:29;;;;;;;16.77;6.80;;;17.20;42.10;;;;;;11997162;28;20467;-72
2021/04/26 22:31:16;;;;;;;16.00;6.38;;;17.00;42.20;;;;;;12000474;28;20053;-71
2021/04/26 22:37:03;;;;;;;12.88;6.97;;;17.00;43.10;;;;;;11993296;28;20061;-72
2021/04/26 22:42:49;;;;;;;14.15;6.03;;;16.90;42.30;;;;;;11989276;28;20057;-71
2021/04/26 22:48:36;;;;;;;11.57;6.60;;;16.90;42.40;;;;;;11993110;28;20614;-72
2021/04/26 22:54:24;;;;;;;10.57;6.70;;;16.90;42.80;;;;;;11987728;28;20080;-71
2021/04/26 23:00:14;;;;;;;20.02;6.80;;;16.90;43.10;;;;;;11994888;28;20041;-72
2021/04/26 23:06:01;;;;;;;16.17;7.15;;;16.80;42.80;;;;;;11990070;28;20044;-72
2021/04/26 23:11:48;;;;;;;13.40;6.97;;;16.80;43.10;;;;;;11993495;28;20079;-71
2021/04/26 23:17:34;;;;;;;11.57;6.60;;;16.60;43.00;;;;;;11992879;28;20415;-71
